sensor_id;sensor_type;location;lat;lon;timestamp;P1;durP1;ratioP1;P2;durP2;ratioP2
44810;SDS011;30526;52.184;4.476;2022-08-01T00:00:34;11.13;;;4.53;;
44810;SDS011;30526;52.184;4.476;2022-08-01T00:03:00;6.47;;;3.22;;
44810;SDS011;30526;52.184;4.476;2022-08-01T00:05:27;7.57;;;3.72;;
44810;SDS011;30526;52.184;4.476;2022-08-01T00:07:53;4.53;;;2.60;;
44810;SDS011;30526;52.184;4.476;2022-08-01T00:10:19;3.45;;;2.15;;
44810;SDS011;30526;52.184;4.476;2022-08-01T00:12:45;6.00;;;2.50;;
44810;SDS011;30526;52.184;4.476;2022-08-01T00:15:13;3.20;;;2.10;;
44810;SDS011;30526;52.184;4.476;2022-08-01T00:20:06;5.90;;;2.65;;
44810;SDS011;30526;52.184;4.476;2022-08-01T00:22:32;5.43;;;2.90;;
44810;SDS011;30526;52.184;4.476;2022-08-01T00:24:58;3.25;;;2.60;;
44810;SDS011;30526;52.184;4.476;2022-08-01T00:27:24;3.97;;;2.20;;
44810;SDS011;30526;52.184;4.476;2022-08-01T00:29:52;5.18;;;2.60;;
44810;SDS011;30526;52.184;4.476;2022-08-01T00:32:18;3.88;;;2.75;;
44810;SDS011;30526;52.184;4.476;2022-08-01T00:34:44;5.78;;;2.95;;
44810;SDS011;30526;52.184;4.476;2022-08-01T00:37:09;5.90;;;2.58;;
44810;SDS011;30526;52.184;4.476;2022-08-01T00:39:35;4.43;;;2.50;;
44810;SDS011;30526;52.184;4.476;2022-08-01T00:42:08;3.03;;;2.20;;
44810;SDS011;30526;52.184;4.476;2022-08-01T00:44:35;4.20;;;1.73;;
44810;SDS011;30526;52.184;4.476;2022-08-01T00:47:01;3.78;;;2.08;;
44810;SDS011;30526;52.184;4.476;2022-08-01T00:49:28;4.27;;;1.77;;
44810;SDS011;30526;52.184;4.476;2022-08-01T00:51:54;4.85;;;1.67;;
44810;SDS011;30526;52.184;4.476;2022-08-01T00:54:20;4.57;;;1.70;;
44810;SDS011;30526;52.184;4.476;2022-08-01T00:56:46;3.80;;;2.13;;
44810;SDS011;30526;52.184;4.476;2022-08-01T00:59:12;2.45;;;2.10;;
44810;SDS011;30526;52.184;4.476;2022-08-01T01:01:39;3.30;;;2.28;;
44810;SDS011;30526;52.184;4.476;2022-08-01T01:04:05;6.60;;;2.65;;
44810;SDS011;30526;52.184;4.476;2022-08-01T01:06:48;4.22;;;2.30;;
44810;SDS011;30526;52.184;4.476;2022-08-01T01:17:16;3.22;;;2.15;;
44810;SDS011;30526;52.184;4.476;2022-08-01T01:19:47;6.28;;;1.98;;
44810;SDS011;30526;52.184;4.476;2022-08-01T01:22:36;4.38;;;2.08;;
44810;SDS011;30526;52.184;4.476;2022-08-01T01:25:18;5.70;;;2.10;;
44810;SDS011;30526;52.184;4.476;2022-08-01T01:30:16;3.28;;;2.20;;
44810;SDS011;30526;52.184;4.476;2022-08-01T01:32:44;2.72;;;1.88;;
44810;SDS011;30526;52.184;4.476;2022-08-01T01:35:14;2.42;;;2.03;;
44810;SDS011;30526;52.184;4.476;2022-08-01T01:37:41;3.78;;;2.00;;
44810;SDS011;30526;52.184;4.476;2022-08-01T01:40:07;3.03;;;2.30;;
44810;SDS011;30526;52.184;4.476;2022-08-01T01:42:35;2.42;;;2.15;;
44810;SDS011;30526;52.184;4.476;2022-08-01T01:45:03;2.60;;;1.70;;
44810;SDS011;30526;52.184;4.476;2022-08-01T01:47:29;2.95;;;2.35;;
44810;SDS011;30526;52.184;4.476;2022-08-01T01:49:56;2.30;;;1.55;;
44810;SDS011;30526;52.184;4.476;2022-08-01T01:52:24;7.25;;;1.52;;
44810;SDS011;30526;52.184;4.476;2022-08-01T01:54:50;3.42;;;2.05;;
44810;SDS011;30526;52.184;4.476;2022-08-01T01:57:17;6.25;;;2.30;;
44810;SDS011;30526;52.184;4.476;2022-08-01T01:59:44;6.17;;;2.30;;
44810;SDS011;30526;52.184;4.476;2022-08-01T02:02:10;4.78;;;2.78;;
44810;SDS011;30526;52.184;4.476;2022-08-01T02:04:38;3.85;;;2.85;;
44810;SDS011;30526;52.184;4.476;2022-08-01T02:07:05;5.00;;;2.85;;
44810;SDS011;30526;52.184;4.476;2022-08-01T02:09:33;7.28;;;2.90;;
44810;SDS011;30526;52.184;4.476;2022-08-01T02:12:01;3.72;;;2.95;;
44810;SDS011;30526;52.184;4.476;2022-08-01T02:14:27;7.30;;;2.40;;
44810;SDS011;30526;52.184;4.476;2022-08-01T02:16:54;8.05;;;2.50;;
44810;SDS011;30526;52.184;4.476;2022-08-01T02:19:20;3.30;;;2.00;;
44810;SDS011;30526;52.184;4.476;2022-08-01T02:21:57;2.80;;;2.30;;
44810;SDS011;30526;52.184;4.476;2022-08-01T02:27:24;3.45;;;1.65;;
44810;SDS011;30526;52.184;4.476;2022-08-01T02:29:58;5.20;;;1.85;;
44810;SDS011;30526;52.184;4.476;2022-08-01T02:32:34;2.80;;;1.45;;
44810;SDS011;30526;52.184;4.476;2022-08-01T02:35:02;2.95;;;1.38;;
44810;SDS011;30526;52.184;4.476;2022-08-01T02:37:33;3.40;;;1.70;;
44810;SDS011;30526;52.184;4.476;2022-08-01T02:39:59;1.67;;;1.42;;
44810;SDS011;30526;52.184;4.476;2022-08-01T02:42:26;2.77;;;1.53;;
44810;SDS011;30526;52.184;4.476;2022-08-01T02:44:52;2.27;;;1.43;;
44810;SDS011;30526;52.184;4.476;2022-08-01T02:47:19;2.58;;;1.65;;
44810;SDS011;30526;52.184;4.476;2022-08-01T02:49:46;3.47;;;1.55;;
44810;SDS011;30526;52.184;4.476;2022-08-01T02:52:15;2.10;;;1.40;;
44810;SDS011;30526;52.184;4.476;2022-08-01T02:54:43;3.60;;;1.98;;
44810;SDS011;30526;52.184;4.476;2022-08-01T02:57:10;5.65;;;2.00;;
44810;SDS011;30526;52.184;4.476;2022-08-01T02:59:37;3.88;;;2.35;;
44810;SDS011;30526;52.184;4.476;2022-08-01T03:02:04;5.65;;;2.08;;
44810;SDS011;30526;52.184;4.476;2022-08-01T03:04:31;3.17;;;1.63;;
44810;SDS011;30526;52.184;4.476;2022-08-01T03:06:58;4.50;;;2.17;;
44810;SDS011;30526;52.184;4.476;2022-08-01T03:09:26;4.63;;;2.08;;
44810;SDS011;30526;52.184;4.476;2022-08-01T03:11:52;3.47;;;1.87;;
44810;SDS011;30526;52.184;4.476;2022-08-01T03:14:20;3.22;;;1.90;;
44810;SDS011;30526;52.184;4.476;2022-08-01T03:16:47;4.20;;;1.40;;
44810;SDS011;30526;52.184;4.476;2022-08-01T03:19:13;2.38;;;1.90;;
44810;SDS011;30526;52.184;4.476;2022-08-01T03:21:40;5.23;;;2.20;;
44810;SDS011;30526;52.184;4.476;2022-08-01T03:24:08;4.72;;;2.33;;
44810;SDS011;30526;52.184;4.476;2022-08-01T03:26:36;4.38;;;2.50;;
44810;SDS011;30526;52.184;4.476;2022-08-01T03:29:03;2.67;;;2.05;;
44810;SDS011;30526;52.184;4.476;2022-08-01T03:31:36;4.53;;;2.10;;
44810;SDS011;30526;52.184;4.476;2022-08-01T03:34:03;4.18;;;2.25;;
44810;SDS011;30526;52.184;4.476;2022-08-01T03:36:30;6.15;;;2.97;;
44810;SDS011;30526;52.184;4.476;2022-08-01T03:38:58;5.38;;;2.38;;
44810;SDS011;30526;52.184;4.476;2022-08-01T03:41:27;3.17;;;2.15;;
44810;SDS011;30526;52.184;4.476;2022-08-01T03:43:55;3.00;;;2.00;;
44810;SDS011;30526;52.184;4.476;2022-08-01T03:46:31;4.32;;;2.47;;
44810;SDS011;30526;52.184;4.476;2022-08-01T03:49:00;5.18;;;1.73;;
44810;SDS011;30526;52.184;4.476;2022-08-01T03:51:29;4.80;;;2.50;;
44810;SDS011;30526;52.184;4.476;2022-08-01T03:53:56;3.90;;;2.53;;
44810;SDS011;30526;52.184;4.476;2022-08-01T03:56:24;5.70;;;2.55;;
44810;SDS011;30526;52.184;4.476;2022-08-01T03:58:51;6.03;;;3.00;;
44810;SDS011;30526;52.184;4.476;2022-08-01T04:01:17;6.68;;;2.85;;
44810;SDS011;30526;52.184;4.476;2022-08-01T04:03:43;4.30;;;3.10;;
44810;SDS011;30526;52.184;4.476;2022-08-01T04:06:09;7.03;;;3.35;;
44810;SDS011;30526;52.184;4.476;2022-08-01T04:08:36;4.57;;;3.08;;
44810;SDS011;30526;52.184;4.476;2022-08-01T04:11:02;4.75;;;2.90;;
44810;SDS011;30526;52.184;4.476;2022-08-01T04:13:28;7.18;;;3.22;;
44810;SDS011;30526;52.184;4.476;2022-08-01T04:15:54;5.68;;;2.92;;
44810;SDS011;30526;52.184;4.476;2022-08-01T04:18:20;7.90;;;3.58;;
44810;SDS011;30526;52.184;4.476;2022-08-01T04:20:46;8.52;;;3.20;;
44810;SDS011;30526;52.184;4.476;2022-08-01T04:23:13;3.95;;;2.28;;
44810;SDS011;30526;52.184;4.476;2022-08-01T04:25:40;5.80;;;2.50;;
44810;SDS011;30526;52.184;4.476;2022-08-01T04:28:07;2.50;;;1.48;;
44810;SDS011;30526;52.184;4.476;2022-08-01T04:30:41;4.22;;;2.10;;
44810;SDS011;30526;52.184;4.476;2022-08-01T04:33:07;2.85;;;1.63;;
44810;SDS011;30526;52.184;4.476;2022-08-01T04:35:34;3.97;;;1.33;;
44810;SDS011;30526;52.184;4.476;2022-08-01T04:38:02;3.60;;;1.90;;
44810;SDS011;30526;52.184;4.476;2022-08-01T04:40:29;3.20;;;1.42;;
44810;SDS011;30526;52.184;4.476;2022-08-01T04:42:55;4.13;;;1.50;;
44810;SDS011;30526;52.184;4.476;2022-08-01T04:45:21;2.58;;;1.48;;
44810;SDS011;30526;52.184;4.476;2022-08-01T04:47:47;2.85;;;1.65;;
44810;SDS011;30526;52.184;4.476;2022-08-01T04:50:15;1.60;;;1.15;;
44810;SDS011;30526;52.184;4.476;2022-08-01T04:52:41;3.20;;;2.10;;
44810;SDS011;30526;52.184;4.476;2022-08-01T04:55:07;5.03;;;1.85;;
44810;SDS011;30526;52.184;4.476;2022-08-01T04:57:37;3.25;;;1.75;;
44810;SDS011;30526;52.184;4.476;2022-08-01T05:00:05;2.30;;;1.70;;
44810;SDS011;30526;52.184;4.476;2022-08-01T05:02:31;3.20;;;1.90;;
44810;SDS011;30526;52.184;4.476;2022-08-01T05:04:57;4.78;;;2.10;;
44810;SDS011;30526;52.184;4.476;2022-08-01T05:07:23;2.92;;;1.42;;
44810;SDS011;30526;52.184;4.476;2022-08-01T05:09:49;3.22;;;1.60;;
44810;SDS011;30526;52.184;4.476;2022-08-01T05:12:15;2.42;;;1.50;;
44810;SDS011;30526;52.184;4.476;2022-08-01T05:14:41;3.15;;;1.92;;
44810;SDS011;30526;52.184;4.476;2022-08-01T05:17:08;8.32;;;1.67;;
44810;SDS011;30526;52.184;4.476;2022-08-01T05:19:34;1.70;;;1.40;;
44810;SDS011;30526;52.184;4.476;2022-08-01T05:24:29;2.47;;;1.73;;
44810;SDS011;30526;52.184;4.476;2022-08-01T05:26:55;3.97;;;1.90;;
44810;SDS011;30526;52.184;4.476;2022-08-01T05:29:22;4.15;;;1.83;;
44810;SDS011;30526;52.184;4.476;2022-08-01T05:31:48;3.47;;;1.70;;
44810;SDS011;30526;52.184;4.476;2022-08-01T05:34:14;4.40;;;2.30;;
44810;SDS011;30526;52.184;4.476;2022-08-01T05:36:40;5.38;;;2.13;;
44810;SDS011;30526;52.184;4.476;2022-08-01T05:39:06;2.58;;;1.83;;
44810;SDS011;30526;52.184;4.476;2022-08-01T05:41:32;5.55;;;2.03;;
44810;SDS011;30526;52.184;4.476;2022-08-01T05:43:58;3.58;;;2.28;;
44810;SDS011;30526;52.184;4.476;2022-08-01T05:46:24;4.80;;;2.38;;
44810;SDS011;30526;52.184;4.476;2022-08-01T05:48:50;8.07;;;2.95;;
44810;SDS011;30526;52.184;4.476;2022-08-01T05:51:16;5.10;;;2.75;;
44810;SDS011;30526;52.184;4.476;2022-08-01T05:53:42;7.95;;;2.80;;
44810;SDS011;30526;52.184;4.476;2022-08-01T05:56:09;8.70;;;3.42;;
44810;SDS011;30526;52.184;4.476;2022-08-01T05:58:35;7.32;;;3.08;;
44810;SDS011;30526;52.184;4.476;2022-08-01T06:01:01;8.10;;;3.40;;
44810;SDS011;30526;52.184;4.476;2022-08-01T06:03:26;8.95;;;3.75;;
44810;SDS011;30526;52.184;4.476;2022-08-01T06:05:56;8.88;;;3.25;;
44810;SDS011;30526;52.184;4.476;2022-08-01T06:08:22;13.45;;;3.80;;
44810;SDS011;30526;52.184;4.476;2022-08-01T06:10:48;10.02;;;3.38;;
44810;SDS011;30526;52.184;4.476;2022-08-01T06:13:14;14.82;;;5.10;;
44810;SDS011;30526;52.184;4.476;2022-08-01T06:15:40;9.05;;;4.25;;
44810;SDS011;30526;52.184;4.476;2022-08-01T06:18:06;11.55;;;5.05;;
44810;SDS011;30526;52.184;4.476;2022-08-01T06:20:32;16.63;;;4.95;;
44810;SDS011;30526;52.184;4.476;2022-08-01T06:22:58;16.63;;;5.57;;
44810;SDS011;30526;52.184;4.476;2022-08-01T06:25:24;16.08;;;5.28;;
44810;SDS011;30526;52.184;4.476;2022-08-01T06:27:50;11.73;;;4.10;;
44810;SDS011;30526;52.184;4.476;2022-08-01T06:30:16;15.32;;;3.85;;
44810;SDS011;30526;52.184;4.476;2022-08-01T06:32:42;12.43;;;4.15;;
44810;SDS011;30526;52.184;4.476;2022-08-01T06:35:08;14.57;;;3.85;;
44810;SDS011;30526;52.184;4.476;2022-08-01T06:37:34;15.02;;;3.70;;
44810;SDS011;30526;52.184;4.476;2022-08-01T06:42:29;16.95;;;3.83;;
44810;SDS011;30526;52.184;4.476;2022-08-01T06:47:29;11.27;;;2.78;;
44810;SDS011;30526;52.184;4.476;2022-08-01T06:49:55;10.35;;;3.55;;
44810;SDS011;30526;52.184;4.476;2022-08-01T06:52:21;9.18;;;3.28;;
44810;SDS011;30526;52.184;4.476;2022-08-01T06:54:47;11.82;;;2.40;;
44810;SDS011;30526;52.184;4.476;2022-08-01T06:57:13;12.65;;;3.40;;
44810;SDS011;30526;52.184;4.476;2022-08-01T06:59:51;17.15;;;3.40;;
44810;SDS011;30526;52.184;4.476;2022-08-01T07:02:30;10.48;;;2.50;;
44810;SDS011;30526;52.184;4.476;2022-08-01T07:05:10;13.60;;;3.20;;
44810;SDS011;30526;52.184;4.476;2022-08-01T07:07:58;8.77;;;2.55;;
44810;SDS011;30526;52.184;4.476;2022-08-01T07:10:30;16.42;;;2.97;;
44810;SDS011;30526;52.184;4.476;2022-08-01T07:12:56;13.70;;;3.63;;
44810;SDS011;30526;52.184;4.476;2022-08-01T07:15:22;14.50;;;2.85;;
44810;SDS011;30526;52.184;4.476;2022-08-01T07:17:57;13.30;;;3.45;;
44810;SDS011;30526;52.184;4.476;2022-08-01T07:20:35;9.77;;;2.95;;
44810;SDS011;30526;52.184;4.476;2022-08-01T07:23:08;11.65;;;2.28;;
44810;SDS011;30526;52.184;4.476;2022-08-01T07:28:42;7.60;;;2.08;;
44810;SDS011;30526;52.184;4.476;2022-08-01T07:31:17;12.38;;;2.55;;
44810;SDS011;30526;52.184;4.476;2022-08-01T07:37:03;9.60;;;2.10;;
44810;SDS011;30526;52.184;4.476;2022-08-01T07:39:35;10.70;;;1.73;;
44810;SDS011;30526;52.184;4.476;2022-08-01T07:42:10;10.05;;;2.28;;
44810;SDS011;30526;52.184;4.476;2022-08-01T07:44:36;7.78;;;2.00;;
44810;SDS011;30526;52.184;4.476;2022-08-01T07:47:04;6.20;;;1.70;;
44810;SDS011;30526;52.184;4.476;2022-08-01T07:49:40;12.35;;;2.25;;
44810;SDS011;30526;52.184;4.476;2022-08-01T07:52:09;9.50;;;2.28;;
44810;SDS011;30526;52.184;4.476;2022-08-01T07:54:37;8.77;;;1.85;;
44810;SDS011;30526;52.184;4.476;2022-08-01T07:57:06;7.15;;;1.60;;
44810;SDS011;30526;52.184;4.476;2022-08-01T07:59:33;5.63;;;1.50;;
44810;SDS011;30526;52.184;4.476;2022-08-01T08:01:59;8.02;;;2.05;;
44810;SDS011;30526;52.184;4.476;2022-08-01T08:04:28;6.63;;;1.50;;
44810;SDS011;30526;52.184;4.476;2022-08-01T08:06:59;7.13;;;1.73;;
44810;SDS011;30526;52.184;4.476;2022-08-01T08:09:25;8.18;;;1.80;;
44810;SDS011;30526;52.184;4.476;2022-08-01T08:11:54;4.03;;;1.40;;
44810;SDS011;30526;52.184;4.476;2022-08-01T08:14:23;5.05;;;1.25;;
44810;SDS011;30526;52.184;4.476;2022-08-01T08:16:54;10.38;;;2.97;;
44810;SDS011;30526;52.184;4.476;2022-08-01T08:19:20;10.90;;;2.30;;
44810;SDS011;30526;52.184;4.476;2022-08-01T08:21:46;7.05;;;1.98;;
44810;SDS011;30526;52.184;4.476;2022-08-01T08:24:12;8.65;;;1.67;;
44810;SDS011;30526;52.184;4.476;2022-08-01T08:26:52;7.50;;;1.67;;
44810;SDS011;30526;52.184;4.476;2022-08-01T08:29:19;11.65;;;3.17;;
44810;SDS011;30526;52.184;4.476;2022-08-01T08:31:45;8.95;;;1.88;;
44810;SDS011;30526;52.184;4.476;2022-08-01T08:34:11;10.07;;;1.50;;
44810;SDS011;30526;52.184;4.476;2022-08-01T08:36:37;11.07;;;2.08;;
44810;SDS011;30526;52.184;4.476;2022-08-01T08:39:03;9.13;;;2.20;;
44810;SDS011;30526;52.184;4.476;2022-08-01T08:41:30;9.05;;;1.38;;
44810;SDS011;30526;52.184;4.476;2022-08-01T08:43:56;8.32;;;1.42;;
44810;SDS011;30526;52.184;4.476;2022-08-01T08:46:24;8.65;;;1.98;;
44810;SDS011;30526;52.184;4.476;2022-08-01T08:48:51;7.15;;;1.67;;
44810;SDS011;30526;52.184;4.476;2022-08-01T08:51:17;7.35;;;1.40;;
44810;SDS011;30526;52.184;4.476;2022-08-01T08:53:46;12.52;;;1.83;;
44810;SDS011;30526;52.184;4.476;2022-08-01T08:56:14;7.45;;;1.73;;
44810;SDS011;30526;52.184;4.476;2022-08-01T08:58:49;9.35;;;2.17;;
44810;SDS011;30526;52.184;4.476;2022-08-01T09:01:16;8.18;;;1.77;;
44810;SDS011;30526;52.184;4.476;2022-08-01T09:03:48;8.88;;;2.05;;
44810;SDS011;30526;52.184;4.476;2022-08-01T09:06:20;12.02;;;1.73;;
44810;SDS011;30526;52.184;4.476;2022-08-01T09:08:52;4.82;;;1.48;;
44810;SDS011;30526;52.184;4.476;2022-08-01T09:11:24;5.90;;;2.13;;
44810;SDS011;30526;52.184;4.476;2022-08-01T09:22:06;3.60;;;1.58;;
44810;SDS011;30526;52.184;4.476;2022-08-01T09:24:55;4.40;;;1.60;;
44810;SDS011;30526;52.184;4.476;2022-08-01T09:27:22;4.85;;;1.67;;
44810;SDS011;30526;52.184;4.476;2022-08-01T09:29:51;2.10;;;1.00;;
44810;SDS011;30526;52.184;4.476;2022-08-01T09:34:44;5.53;;;1.00;;
44810;SDS011;30526;52.184;4.476;2022-08-01T09:37:12;5.28;;;1.25;;
44810;SDS011;30526;52.184;4.476;2022-08-01T09:39:43;4.20;;;1.35;;
44810;SDS011;30526;52.184;4.476;2022-08-01T09:42:21;5.35;;;1.63;;
44810;SDS011;30526;52.184;4.476;2022-08-01T09:44:47;5.13;;;1.70;;
44810;SDS011;30526;52.184;4.476;2022-08-01T09:47:13;3.63;;;1.50;;
44810;SDS011;30526;52.184;4.476;2022-08-01T09:49:43;4.38;;;1.40;;
44810;SDS011;30526;52.184;4.476;2022-08-01T09:52:17;3.72;;;1.25;;
44810;SDS011;30526;52.184;4.476;2022-08-01T09:54:52;5.40;;;1.20;;
44810;SDS011;30526;52.184;4.476;2022-08-01T09:57:20;7.55;;;1.52;;
44810;SDS011;30526;52.184;4.476;2022-08-01T09:59:53;6.47;;;1.38;;
44810;SDS011;30526;52.184;4.476;2022-08-01T10:02:37;8.35;;;1.95;;
44810;SDS011;30526;52.184;4.476;2022-08-01T10:15:32;5.70;;;1.33;;
44810;SDS011;30526;52.184;4.476;2022-08-01T10:18:40;9.75;;;1.63;;
44810;SDS011;30526;52.184;4.476;2022-08-01T10:21:28;6.22;;;1.90;;
44810;SDS011;30526;52.184;4.476;2022-08-01T10:24:22;7.40;;;2.00;;
44810;SDS011;30526;52.184;4.476;2022-08-01T10:36:07;8.23;;;1.70;;
44810;SDS011;30526;52.184;4.476;2022-08-01T10:38:33;6.45;;;1.48;;
44810;SDS011;30526;52.184;4.476;2022-08-01T10:44:00;9.18;;;1.60;;
44810;SDS011;30526;52.184;4.476;2022-08-01T10:46:44;9.32;;;2.08;;
44810;SDS011;30526;52.184;4.476;2022-08-01T10:49:25;7.35;;;1.60;;
44810;SDS011;30526;52.184;4.476;2022-08-01T10:51:58;9.98;;;1.90;;
44810;SDS011;30526;52.184;4.476;2022-08-01T10:54:30;13.75;;;2.28;;
44810;SDS011;30526;52.184;4.476;2022-08-01T10:59:55;8.25;;;1.92;;
44810;SDS011;30526;52.184;4.476;2022-08-01T11:02:26;9.45;;;1.75;;
44810;SDS011;30526;52.184;4.476;2022-08-01T11:05:12;5.72;;;1.70;;
44810;SDS011;30526;52.184;4.476;2022-08-01T11:07:48;7.70;;;1.45;;
44810;SDS011;30526;52.184;4.476;2022-08-01T11:10:41;6.80;;;1.73;;
44810;SDS011;30526;52.184;4.476;2022-08-01T11:13:10;5.80;;;1.90;;
44810;SDS011;30526;52.184;4.476;2022-08-01T11:15:36;12.88;;;1.95;;
44810;SDS011;30526;52.184;4.476;2022-08-01T11:18:04;9.10;;;1.70;;
44810;SDS011;30526;52.184;4.476;2022-08-01T11:20:56;10.60;;;2.22;;
44810;SDS011;30526;52.184;4.476;2022-08-01T11:23:22;10.90;;;1.48;;
44810;SDS011;30526;52.184;4.476;2022-08-01T11:30:45;11.55;;;2.80;;
44810;SDS011;30526;52.184;4.476;2022-08-01T11:33:12;5.65;;;1.80;;
44810;SDS011;30526;52.184;4.476;2022-08-01T11:38:23;7.73;;;1.67;;
44810;SDS011;30526;52.184;4.476;2022-08-01T11:52:07;6.15;;;1.63;;
44810;SDS011;30526;52.184;4.476;2022-08-01T11:54:37;7.35;;;2.00;;
44810;SDS011;30526;52.184;4.476;2022-08-01T11:57:04;7.10;;;1.73;;
44810;SDS011;30526;52.184;4.476;2022-08-01T12:00:04;8.30;;;1.75;;
44810;SDS011;30526;52.184;4.476;2022-08-01T12:04:51;10.82;;;1.77;;
44810;SDS011;30526;52.184;4.476;2022-08-01T12:07:18;7.20;;;1.42;;
44810;SDS011;30526;52.184;4.476;2022-08-01T12:09:44;8.98;;;1.83;;
44810;SDS011;30526;52.184;4.476;2022-08-01T12:12:11;4.57;;;1.42;;
44810;SDS011;30526;52.184;4.476;2022-08-01T12:14:42;12.07;;;1.92;;
44810;SDS011;30526;52.184;4.476;2022-08-01T12:17:08;9.85;;;1.98;;
44810;SDS011;30526;52.184;4.476;2022-08-01T12:19:34;10.30;;;1.70;;
44810;SDS011;30526;52.184;4.476;2022-08-01T12:22:04;10.63;;;1.75;;
44810;SDS011;30526;52.184;4.476;2022-08-01T12:24:31;9.35;;;1.75;;
44810;SDS011;30526;52.184;4.476;2022-08-01T12:26:57;5.57;;;1.87;;
44810;SDS011;30526;52.184;4.476;2022-08-01T12:29:30;5.67;;;1.70;;
44810;SDS011;30526;52.184;4.476;2022-08-01T12:31:56;7.43;;;1.50;;
44810;SDS011;30526;52.184;4.476;2022-08-01T12:34:26;7.70;;;1.63;;
44810;SDS011;30526;52.184;4.476;2022-08-01T12:36:54;9.88;;;1.80;;
44810;SDS011;30526;52.184;4.476;2022-08-01T12:39:20;13.07;;;2.67;;
44810;SDS011;30526;52.184;4.476;2022-08-01T12:41:46;5.43;;;1.67;;
44810;SDS011;30526;52.184;4.476;2022-08-01T12:44:12;7.95;;;1.40;;
44810;SDS011;30526;52.184;4.476;2022-08-01T12:46:40;7.00;;;1.30;;
44810;SDS011;30526;52.184;4.476;2022-08-01T12:49:06;4.28;;;1.70;;
44810;SDS011;30526;52.184;4.476;2022-08-01T12:51:32;8.02;;;1.50;;
44810;SDS011;30526;52.184;4.476;2022-08-01T12:56:31;3.38;;;1.23;;
44810;SDS011;30526;52.184;4.476;2022-08-01T12:58:58;3.30;;;1.20;;
44810;SDS011;30526;52.184;4.476;2022-08-01T13:04:00;5.63;;;1.50;;
44810;SDS011;30526;52.184;4.476;2022-08-01T13:06:28;3.45;;;1.23;;
44810;SDS011;30526;52.184;4.476;2022-08-01T13:08:55;5.40;;;1.30;;
44810;SDS011;30526;52.184;4.476;2022-08-01T13:11:29;3.53;;;1.10;;
44810;SDS011;30526;52.184;4.476;2022-08-01T13:13:56;7.22;;;1.67;;
44810;SDS011;30526;52.184;4.476;2022-08-01T13:16:23;4.50;;;1.20;;
44810;SDS011;30526;52.184;4.476;2022-08-01T13:18:50;3.70;;;1.20;;
44810;SDS011;30526;52.184;4.476;2022-08-01T13:21:19;4.40;;;1.25;;
44810;SDS011;30526;52.184;4.476;2022-08-01T13:24:02;4.57;;;1.38;;
44810;SDS011;30526;52.184;4.476;2022-08-01T13:26:39;5.47;;;1.30;;
44810;SDS011;30526;52.184;4.476;2022-08-01T13:29:07;5.75;;;1.40;;
44810;SDS011;30526;52.184;4.476;2022-08-01T13:31:34;4.35;;;1.50;;
44810;SDS011;30526;52.184;4.476;2022-08-01T13:34:00;6.25;;;1.45;;
44810;SDS011;30526;52.184;4.476;2022-08-01T13:36:26;3.15;;;1.27;;
44810;SDS011;30526;52.184;4.476;2022-08-01T13:38:54;5.82;;;1.30;;
44810;SDS011;30526;52.184;4.476;2022-08-01T13:41:41;2.55;;;0.88;;
44810;SDS011;30526;52.184;4.476;2022-08-01T13:44:07;4.53;;;1.35;;
44810;SDS011;30526;52.184;4.476;2022-08-01T13:46:34;4.88;;;1.35;;
44810;SDS011;30526;52.184;4.476;2022-08-01T13:49:01;3.22;;;1.02;;
44810;SDS011;30526;52.184;4.476;2022-08-01T13:53:53;2.95;;;0.95;;
44810;SDS011;30526;52.184;4.476;2022-08-01T13:56:19;3.33;;;1.05;;
44810;SDS011;30526;52.184;4.476;2022-08-01T13:58:45;1.90;;;0.80;;
44810;SDS011;30526;52.184;4.476;2022-08-01T14:01:11;1.92;;;0.88;;
44810;SDS011;30526;52.184;4.476;2022-08-01T14:03:37;3.47;;;1.33;;
44810;SDS011;30526;52.184;4.476;2022-08-01T14:06:03;2.80;;;0.73;;
44810;SDS011;30526;52.184;4.476;2022-08-01T14:08:31;1.20;;;0.70;;
44810;SDS011;30526;52.184;4.476;2022-08-01T14:10:57;4.25;;;1.10;;
44810;SDS011;30526;52.184;4.476;2022-08-01T14:13:24;2.67;;;0.80;;
44810;SDS011;30526;52.184;4.476;2022-08-01T14:20:42;1.67;;;0.80;;
44810;SDS011;30526;52.184;4.476;2022-08-01T14:23:08;2.22;;;0.80;;
44810;SDS011;30526;52.184;4.476;2022-08-01T14:25:37;3.25;;;1.10;;
44810;SDS011;30526;52.184;4.476;2022-08-01T14:28:04;2.42;;;0.90;;
44810;SDS011;30526;52.184;4.476;2022-08-01T14:30:31;2.08;;;0.90;;
44810;SDS011;30526;52.184;4.476;2022-08-01T14:32:57;1.73;;;0.90;;
44810;SDS011;30526;52.184;4.476;2022-08-01T14:35:22;3.00;;;1.40;;
44810;SDS011;30526;52.184;4.476;2022-08-01T14:37:49;3.42;;;1.40;;
44810;SDS011;30526;52.184;4.476;2022-08-01T14:40:14;3.28;;;1.42;;
44810;SDS011;30526;52.184;4.476;2022-08-01T14:42:40;5.15;;;1.45;;
44810;SDS011;30526;52.184;4.476;2022-08-01T14:45:09;2.25;;;1.27;;
44810;SDS011;30526;52.184;4.476;2022-08-01T14:47:35;6.47;;;1.60;;
44810;SDS011;30526;52.184;4.476;2022-08-01T14:50:02;4.40;;;1.75;;
44810;SDS011;30526;52.184;4.476;2022-08-01T14:52:28;5.00;;;1.50;;
44810;SDS011;30526;52.184;4.476;2022-08-01T14:54:54;3.17;;;1.63;;
44810;SDS011;30526;52.184;4.476;2022-08-01T14:57:20;4.95;;;1.40;;
44810;SDS011;30526;52.184;4.476;2022-08-01T14:59:46;2.25;;;1.58;;
44810;SDS011;30526;52.184;4.476;2022-08-01T15:02:12;2.10;;;1.35;;
44810;SDS011;30526;52.184;4.476;2022-08-01T15:04:42;2.95;;;1.45;;
44810;SDS011;30526;52.184;4.476;2022-08-01T15:07:08;2.38;;;1.38;;
44810;SDS011;30526;52.184;4.476;2022-08-01T15:09:34;2.45;;;1.40;;
44810;SDS011;30526;52.184;4.476;2022-08-01T15:12:04;2.83;;;1.70;;
44810;SDS011;30526;52.184;4.476;2022-08-01T15:14:30;4.55;;;1.60;;
44810;SDS011;30526;52.184;4.476;2022-08-01T15:17:19;3.78;;;1.40;;
44810;SDS011;30526;52.184;4.476;2022-08-01T15:19:46;2.60;;;1.45;;
44810;SDS011;30526;52.184;4.476;2022-08-01T15:22:13;2.30;;;1.60;;
44810;SDS011;30526;52.184;4.476;2022-08-01T15:24:44;2.55;;;1.33;;
44810;SDS011;30526;52.184;4.476;2022-08-01T15:27:10;1.33;;;1.20;;
44810;SDS011;30526;52.184;4.476;2022-08-01T15:29:36;2.17;;;1.25;;
44810;SDS011;30526;52.184;4.476;2022-08-01T15:32:03;3.67;;;1.20;;
44810;SDS011;30526;52.184;4.476;2022-08-01T15:34:30;2.80;;;1.42;;
44810;SDS011;30526;52.184;4.476;2022-08-01T15:36:56;3.08;;;1.30;;
44810;SDS011;30526;52.184;4.476;2022-08-01T15:39:22;1.50;;;1.40;;
44810;SDS011;30526;52.184;4.476;2022-08-01T15:41:49;1.30;;;1.20;;
44810;SDS011;30526;52.184;4.476;2022-08-01T15:44:15;2.30;;;1.15;;
44810;SDS011;30526;52.184;4.476;2022-08-01T15:46:44;3.10;;;1.45;;
44810;SDS011;30526;52.184;4.476;2022-08-01T15:49:10;2.17;;;1.25;;
44810;SDS011;30526;52.184;4.476;2022-08-01T15:51:36;1.98;;;1.30;;
44810;SDS011;30526;52.184;4.476;2022-08-01T15:54:02;2.60;;;1.15;;
44810;SDS011;30526;52.184;4.476;2022-08-01T15:56:31;6.60;;;1.10;;
44810;SDS011;30526;52.184;4.476;2022-08-01T15:58:57;1.40;;;1.02;;
44810;SDS011;30526;52.184;4.476;2022-08-01T16:01:23;2.58;;;1.10;;
44810;SDS011;30526;52.184;4.476;2022-08-01T16:03:51;2.92;;;1.02;;
44810;SDS011;30526;52.184;4.476;2022-08-01T16:06:16;1.33;;;1.00;;
44810;SDS011;30526;52.184;4.476;2022-08-01T16:08:42;1.50;;;0.93;;
44810;SDS011;30526;52.184;4.476;2022-08-01T16:11:08;5.63;;;0.98;;
44810;SDS011;30526;52.184;4.476;2022-08-01T16:13:34;1.45;;;0.90;;
44810;SDS011;30526;52.184;4.476;2022-08-01T16:16:00;2.20;;;0.80;;
44810;SDS011;30526;52.184;4.476;2022-08-01T16:18:28;2.90;;;0.98;;
44810;SDS011;30526;52.184;4.476;2022-08-01T16:20:55;1.90;;;1.10;;
44810;SDS011;30526;52.184;4.476;2022-08-01T16:23:22;1.67;;;0.93;;
44810;SDS011;30526;52.184;4.476;2022-08-01T16:25:49;1.80;;;1.00;;
44810;SDS011;30526;52.184;4.476;2022-08-01T16:28:15;1.42;;;0.80;;
44810;SDS011;30526;52.184;4.476;2022-08-01T16:30:41;3.70;;;0.90;;
44810;SDS011;30526;52.184;4.476;2022-08-01T16:33:07;1.27;;;0.90;;